Time;durP1;ratioP1;P1;durP2;ratioP2;P2;SDS_P1;SDS_P2;PMS_P1;PMS_P2;Temp;Humidity;BMP_temperature;BMP_pressure;BME280_temperature;BME280_humidity;BME280_pressure;Samples;Min_cycle;Max_cycle;Signal;HPM_P1;HPM_P2
2022/12/09 06:02:06;;;;;;;17.40;9.10;;;-1.90;99.90;;;;;;5523437;24;20057;-75
2022/12/09 06:04:31;;;;;;;15.55;8.70;;;-1.90;99.90;;;;;;4869683;29;20033;-75
2022/12/09 06:06:57;;;;;;;15.27;8.88;;;-2.00;99.90;;;;;;4869774;29;20033;-74
2022/12/09 06:09:23;;;;;;;17.55;8.55;;;-1.90;99.90;;;;;;4870031;29;20109;-76
2022/12/09 06:11:48;;;;;;;15.90;8.68;;;-1.90;99.90;;;;;;4853491;29;20056;-76
2022/12/09 06:14:14;;;;;;;15.80;8.57;;;-1.90;99.90;;;;;;4869911;29;20148;-74
2022/12/09 06:16:40;;;;;;;16.50;8.85;;;-1.90;99.90;;;;;;4870167;29;20188;-75
2022/12/09 06:19:05;;;;;;;16.30;8.93;;;-1.90;99.90;;;;;;4852227;29;20037;-75
2022/12/09 06:21:31;;;;;;;19.45;9.05;;;-1.80;99.90;;;;;;4853330;29;20191;-76
2022/12/09 06:23:57;;;;;;;16.90;8.88;;;-1.90;99.90;;;;;;4869280;29;20034;-75
2022/12/09 06:26:25;;;;;;;18.30;8.70;;;-1.80;99.90;;;;;;4854235;29;20210;-74
2022/12/09 06:28:52;;;;;;;16.52;8.48;;;-1.80;99.90;;;;;;4853752;29;20030;-74
2022/12/09 06:31:21;;;;;;;14.00;8.43;;;-1.80;99.90;;;;;;4853039;29;20045;-74
2022/12/09 06:33:47;;;;;;;17.08;8.43;;;-1.80;99.90;;;;;;4869661;29;20276;-75
2022/12/09 06:36:12;;;;;;;16.33;8.40;;;-1.80;99.90;;;;;;4869038;29;20037;-74
2022/12/09 06:38:38;;;;;;;18.15;9.15;;;-1.70;99.90;;;;;;4869768;29;20022;-74
2022/12/09 06:41:09;;;;;;;17.05;9.40;;;-1.60;99.90;;;;;;4869321;29;20032;-76
2022/12/09 06:43:35;;;;;;;16.45;8.63;;;-1.60;99.90;;;;;;4869550;29;20029;-75
2022/12/09 06:46:01;;;;;;;15.55;9.02;;;-1.50;99.90;;;;;;4869198;29;20097;-74
2022/12/09 06:48:27;;;;;;;16.40;8.65;;;-1.60;99.90;;;;;;4852935;29;20196;-74
2022/12/09 06:50:55;;;;;;;18.73;8.73;;;-1.50;99.90;;;;;;4869138;29;20036;-74
2022/12/09 06:53:21;;;;;;;15.18;8.88;;;-1.50;99.90;;;;;;4868732;29;20319;-75
2022/12/09 06:55:47;;;;;;;16.17;9.38;;;-1.50;99.90;;;;;;4870081;29;20056;-74
2022/12/09 06:58:13;;;;;;;16.13;8.70;;;-1.40;99.90;;;;;;4854935;29;20311;-74
2022/12/09 07:00:39;;;;;;;17.05;9.85;;;-1.40;99.90;;;;;;4871907;29;20104;-75
2022/12/09 07:03:04;;;;;;;16.15;8.70;;;-1.40;99.90;;;;;;4871332;29;20048;-76
2022/12/09 07:05:31;;;;;;;17.80;8.48;;;-1.40;99.90;;;;;;4869443;29;20076;-76
2022/12/09 07:07:56;;;;;;;15.93;8.20;;;-1.40;99.90;;;;;;4865329;29;20201;-75
2022/12/09 07:10:22;;;;;;;15.43;8.43;;;-1.40;99.90;;;;;;4837381;29;20057;-76
2022/12/09 07:12:48;;;;;;;16.58;9.05;;;-1.30;99.90;;;;;;4869294;29;20036;-74
2022/12/09 07:15:13;;;;;;;14.73;8.82;;;-1.30;99.90;;;;;;4869869;29;20041;-76
2022/12/09 07:17:39;;;;;;;16.20;8.77;;;-1.20;99.90;;;;;;4869511;29;20089;-74
2022/12/09 07:20:05;;;;;;;16.35;8.43;;;-1.20;99.90;;;;;;4869386;29;20326;-75
2022/12/09 07:22:34;;;;;;;15.70;8.60;;;-1.10;99.90;;;;;;4869982;29;20037;-75
2022/12/09 07:25:00;;;;;;;16.98;9.18;;;-1.00;99.90;;;;;;4837527;29;20033;-74
2022/12/09 07:27:26;;;;;;;18.35;9.07;;;-1.00;99.90;;;;;;4862381;29;20022;-75
2022/12/09 07:29:52;;;;;;;17.83;9.70;;;-0.90;99.90;;;;;;4851509;29;20093;-74
2022/12/09 07:32:17;;;;;;;17.70;9.02;;;-0.80;99.90;;;;;;4850544;29;20034;-75
2022/12/09 07:34:44;;;;;;;16.85;9.25;;;-0.70;99.90;;;;;;4851029;29;20049;-74
2022/12/09 07:37:10;;;;;;;16.17;8.20;;;-0.60;99.90;;;;;;4849085;29;20040;-74
2022/12/09 07:39:35;;;;;;;14.60;8.77;;;-0.50;99.90;;;;;;4850748;29;20030;-76
2022/12/09 07:42:01;;;;;;;15.68;8.18;;;-0.40;99.90;;;;;;4850029;29;20337;-75
2022/12/09 07:44:29;;;;;;;16.42;8.55;;;-0.30;99.90;;;;;;4834351;29;20037;-74
2022/12/09 07:46:55;;;;;;;15.05;8.07;;;-0.30;99.90;;;;;;4834446;29;20244;-75
2022/12/09 07:49:21;;;;;;;15.57;9.07;;;-0.20;99.90;;;;;;4853199;29;20089;-76
2022/12/09 07:51:47;;;;;;;18.42;9.07;;;-0.10;99.90;;;;;;4837373;29;20332;-77
2022/12/09 07:54:15;;;;;;;14.07;8.18;;;-0.20;99.90;;;;;;4853607;29;20081;-75
2022/12/09 07:56:41;;;;;;;16.08;8.57;;;-0.10;99.90;;;;;;4854108;29;20223;-76
2022/12/09 07:59:12;;;;;;;16.40;8.45;;;0.00;99.90;;;;;;4837055;29;20042;-79
2022/12/09 08:01:38;;;;;;;13.68;7.75;;;0.10;99.90;;;;;;4852611;29;20219;-77
2022/12/09 08:04:06;;;;;;;14.63;7.93;;;0.30;99.90;;;;;;4837428;29;20030;-75
2022/12/09 08:06:32;;;;;;;14.38;8.48;;;0.40;99.90;;;;;;4854132;29;20044;-76
2022/12/09 08:08:59;;;;;;;15.98;8.15;;;0.50;99.90;;;;;;4853835;29;20025;-78
2022/12/09 08:11:30;;;;;;;14.75;7.45;;;0.50;99.90;;;;;;4855814;29;20252;-76
2022/12/09 08:14:00;;;;;;;13.25;7.90;;;0.60;99.90;;;;;;4871336;29;20061;-75
2022/12/09 08:16:26;;;;;;;12.20;7.88;;;0.70;99.90;;;;;;4870977;29;20074;-76
2022/12/09 08:18:53;;;;;;;15.77;8.80;;;0.80;99.90;;;;;;4854825;29;20116;-76
2022/12/09 08:21:22;;;;;;;13.50;8.07;;;0.80;99.90;;;;;;4853979;29;20029;-76
2022/12/09 08:23:49;;;;;;;19.38;8.23;;;1.00;99.90;;;;;;4870900;29;20037;-74
2022/12/09 08:26:18;;;;;;;15.52;8.50;;;1.00;99.90;;;;;;4869267;29;20108;-75
2022/12/09 08:28:44;;;;;;;18.00;9.13;;;1.20;99.90;;;;;;4870910;29;20037;-76
2022/12/09 08:31:13;;;;;;;16.13;8.55;;;1.30;99.90;;;;;;4854035;29;20038;-76
2022/12/09 08:33:40;;;;;;;16.90;8.38;;;1.30;99.90;;;;;;4852302;29;20066;-76
2022/12/09 08:36:12;;;;;;;17.25;8.18;;;1.40;99.90;;;;;;4835529;29;20038;-74
2022/12/09 08:38:39;;;;;;;18.95;8.63;;;1.40;99.90;;;;;;4852458;29;20033;-73
2022/12/09 08:41:14;;;;;;;17.17;8.25;;;1.50;99.90;;;;;;4851804;29;20101;-74
2022/12/09 08:43:41;;;;;;;15.85;8.13;;;1.60;99.90;;;;;;4850780;29;20037;-74
2022/12/09 08:46:07;;;;;;;15.55;9.40;;;1.60;99.90;;;;;;4859036;29;20058;-75
2022/12/09 08:48:38;;;;;;;13.55;8.20;;;1.60;99.90;;;;;;4870361;29;20048;-74
2022/12/09 08:51:05;;;;;;;15.93;8.85;;;1.70;99.90;;;;;;4858178;29;20091;-73
2022/12/09 08:53:31;;;;;;;16.52;8.45;;;1.60;99.90;;;;;;4851839;29;20330;-74
2022/12/09 08:55:57;;;;;;;20.48;9.18;;;1.80;99.90;;;;;;4851844;29;20097;-74
2022/12/09 08:58:23;;;;;;;13.10;8.43;;;1.80;99.90;;;;;;4851192;29;20030;-74
2022/12/09 09:00:49;;;;;;;14.60;8.32;;;1.80;99.90;;;;;;4852257;29;20041;-72
2022/12/09 09:03:15;;;;;;;16.17;8.60;;;1.70;99.90;;;;;;4834823;29;20052;-73
2022/12/09 09:05:40;;;;;;;15.10;8.50;;;1.70;99.90;;;;;;4851708;29;20223;-73
2022/12/09 09:08:06;;;;;;;15.10;8.02;;;1.80;99.90;;;;;;4851633;29;20333;-73
2022/12/09 09:10:32;;;;;;;14.00;8.30;;;1.70;99.90;;;;;;4861153;29;20033;-72
2022/12/09 09:12:57;;;;;;;13.73;8.52;;;1.70;99.90;;;;;;4852466;29;20045;-72
2022/12/09 09:15:23;;;;;;;16.05;9.15;;;1.60;99.90;;;;;;4851790;29;20037;-73
2022/12/09 09:17:52;;;;;;;16.23;8.63;;;1.60;99.90;;;;;;4852649;29;20026;-73
2022/12/09 09:20:18;;;;;;;18.77;9.82;;;1.60;99.90;;;;;;4844577;29;20081;-74
2022/12/09 09:22:44;;;;;;;16.70;9.43;;;1.50;99.90;;;;;;4869981;29;20267;-73
2022/12/09 09:25:10;;;;;;;15.30;9.57;;;1.50;99.90;;;;;;4853036;29;20040;-72
2022/12/09 09:27:36;;;;;;;14.10;8.77;;;1.50;99.90;;;;;;4870283;29;20033;-73
2022/12/09 09:30:03;;;;;;;13.80;8.48;;;1.50;99.90;;;;;;4870137;29;20319;-74
2022/12/09 09:32:31;;;;;;;17.33;8.90;;;1.60;99.90;;;;;;4857749;29;20037;-72
2022/12/09 09:34:56;;;;;;;15.43;9.25;;;1.70;99.90;;;;;;4851505;29;20034;-72
2022/12/09 09:37:22;;;;;;;17.40;9.05;;;1.60;99.90;;;;;;4850998;29;20030;-72
2022/12/09 09:39:48;;;;;;;16.02;8.93;;;1.70;99.90;;;;;;4851300;29;20049;-72
2022/12/09 09:42:22;;;;;;;16.77;9.73;;;1.70;99.90;;;;;;4850500;29;20081;-72
2022/12/09 09:44:50;;;;;;;14.82;8.75;;;1.70;99.90;;;;;;4851404;29;20074;-72
2022/12/09 09:47:24;;;;;;;17.02;10.10;;;1.80;99.90;;;;;;4851239;29;20101;-72
2022/12/09 09:50:21;;;;;;;16.73;10.43;;;1.80;99.90;;;;;;4851494;29;20252;-72
2022/12/09 09:52:51;;;;;;;17.38;9.32;;;1.80;99.90;;;;;;4850923;29;20086;-72
2022/12/09 09:55:21;;;;;;;16.67;9.75;;;1.80;99.90;;;;;;4850483;29;20030;-72
2022/12/09 09:58:14;;;;;;;18.83;10.73;;;1.80;99.90;;;;;;4851235;29;20038;-72
2022/12/09 10:00:55;;;;;;;18.50;10.60;;;1.80;99.90;;;;;;4851056;29;20056;-72
2022/12/09 10:03:38;;;;;;;16.30;9.30;;;1.90;99.90;;;;;;4850034;29;20046;-75
2022/12/09 10:06:26;;;;;;;17.73;10.07;;;1.90;99.90;;;;;;4851025;29;20034;-73
2022/12/09 10:09:01;;;;;;;16.15;9.52;;;2.00;99.90;;;;;;4859173;29;20227;-71
2022/12/09 10:11:54;;;;;;;18.95;10.13;;;2.00;99.90;;;;;;4867902;29;20033;-71
2022/12/09 10:14:31;;;;;;;17.40;9.98;;;2.00;99.90;;;;;;4868877;29;20033;-72
2022/12/09 10:17:17;;;;;;;18.05;9.75;;;2.10;99.90;;;;;;4869008;29;20064;-71
2022/12/09 10:19:48;;;;;;;17.75;10.88;;;2.30;99.90;;;;;;4868913;29;20319;-71
2022/12/09 10:22:27;;;;;;;20.17;10.68;;;2.40;99.90;;;;;;4868426;29;20296;-73
2022/12/09 10:24:57;;;;;;;18.95;10.50;;;2.30;99.90;;;;;;4869143;29;20022;-74
2022/12/09 10:27:57;;;;;;;19.65;10.15;;;2.40;99.90;;;;;;4868307;29;20100;-74
2022/12/09 10:30:23;;;;;;;16.55;9.95;;;2.30;99.90;;;;;;4868163;29;20112;-78
2022/12/09 10:32:49;;;;;;;21.73;10.10;;;2.30;99.90;;;;;;4868681;29;20052;-73
2022/12/09 10:35:18;;;;;;;15.52;9.93;;;2.20;99.90;;;;;;4851958;29;20069;-73
2022/12/09 10:37:45;;;;;;;18.52;10.98;;;2.20;99.90;;;;;;4852622;29;20307;-76
2022/12/09 10:40:29;;;;;;;19.27;10.98;;;2.20;99.90;;;;;;4868365;29;20274;-74
2022/12/09 10:45:45;;;;;;;17.77;10.15;;;2.40;99.90;;;;;;4868950;29;20040;-72
2022/12/09 10:48:29;;;;;;;18.65;10.85;;;2.50;99.90;;;;;;4868123;29;20114;-71
2022/12/09 10:51:11;;;;;;;19.08;11.05;;;2.50;99.90;;;;;;4868694;29;20311;-73
2022/12/09 10:53:53;;;;;;;19.60;11.13;;;2.50;99.90;;;;;;4868713;29;20026;-73
2022/12/09 10:56:24;;;;;;;17.13;10.05;;;2.50;99.90;;;;;;4868026;29;20048;-73
2022/12/09 10:59:06;;;;;;;23.67;10.98;;;2.50;99.90;;;;;;4868528;29;20048;-72
2022/12/09 11:01:50;;;;;;;19.77;10.80;;;2.40;99.90;;;;;;4867440;29;20045;-73
2022/12/09 11:04:25;;;;;;;20.10;11.45;;;2.30;99.90;;;;;;4833447;29;20302;-75
2022/12/09 11:06:55;;;;;;;20.65;11.35;;;2.10;99.90;;;;;;4833688;29;20037;-75
2022/12/09 11:09:26;;;;;;;18.13;11.43;;;2.00;99.90;;;;;;4852505;29;20149;-77
2022/12/09 11:11:52;;;;;;;24.90;13.93;;;1.90;99.90;;;;;;4868479;29;20428;-76
2022/12/09 11:14:27;;;;;;;19.00;11.98;;;1.90;99.90;;;;;;4868144;29;20041;-77
2022/12/09 11:16:59;;;;;;;19.02;11.63;;;2.00;99.90;;;;;;4851985;29;20022;-76
2022/12/09 11:19:34;;;;;;;19.58;11.60;;;2.10;99.90;;;;;;4867681;29;20029;-73
2022/12/09 11:22:34;;;;;;;21.92;11.32;;;2.20;99.90;;;;;;4869379;29;20044;-75
2022/12/09 11:25:42;;;;;;;21.33;11.23;;;2.40;99.90;;;;;;4868039;29;20049;-77
2022/12/09 11:28:16;;;;;;;21.13;11.07;;;2.50;99.90;;;;;;4838493;29;20038;-74
2022/12/09 11:30:48;;;;;;;20.08;11.38;;;2.60;99.90;;;;;;4871905;29;20096;-75
2022/12/09 11:33:14;;;;;;;19.48;10.38;;;2.70;99.90;;;;;;4855673;29;20049;-78
2022/12/09 11:35:42;;;;;;;17.83;10.73;;;2.70;99.90;;;;;;4872680;29;20093;-79
2022/12/09 11:38:29;;;;;;;18.52;10.73;;;2.90;99.90;;;;;;4872115;29;20030;-73
2022/12/09 11:41:06;;;;;;;21.38;11.88;;;2.80;99.90;;;;;;4871735;29;20314;-74
2022/12/09 11:43:55;;;;;;;17.58;10.57;;;3.00;99.90;;;;;;4855024;29;20037;-73
2022/12/09 11:46:35;;;;;;;22.42;11.70;;;3.20;99.90;;;;;;4871393;29;20025;-73
2022/12/09 11:49:17;;;;;;;18.02;11.20;;;3.40;99.90;;;;;;4870405;29;20041;-75
2022/12/09 11:52:03;;;;;;;21.50;11.68;;;3.50;99.90;;;;;;4871628;29;20097;-74
2022/12/09 11:54:42;;;;;;;19.50;10.23;;;3.50;99.90;;;;;;4871176;29;20215;-75
2022/12/09 11:57:23;;;;;;;19.05;11.80;;;3.40;99.90;;;;;;4871359;29;20033;-74
2022/12/09 11:59:54;;;;;;;20.83;12.10;;;3.50;99.90;;;;;;4871475;29;20060;-74
2022/12/09 12:02:44;;;;;;;19.98;11.45;;;3.50;99.90;;;;;;4854102;29;20045;-75
2022/12/09 12:05:32;;;;;;;22.70;13.18;;;3.50;99.90;;;;;;4871787;29;20061;-75
2022/12/09 12:08:13;;;;;;;20.02;11.52;;;3.30;99.90;;;;;;4871448;29;20156;-75
2022/12/09 12:10:56;;;;;;;18.02;11.85;;;3.10;99.90;;;;;;4870644;29;20025;-73
2022/12/09 12:13:43;;;;;;;20.88;12.25;;;3.00;99.90;;;;;;4871384;29;20231;-73
2022/12/09 12:16:32;;;;;;;18.75;11.57;;;3.00;99.90;;;;;;4854657;29;20129;-74
2022/12/09 12:19:22;;;;;;;20.85;11.52;;;2.80;99.90;;;;;;4871183;29;20025;-73
2022/12/09 12:22:09;;;;;;;21.88;11.43;;;2.80;99.90;;;;;;4870927;29;20070;-74
2022/12/09 12:24:47;;;;;;;21.55;12.18;;;2.70;99.90;;;;;;4870356;29;20215;-74
2022/12/09 12:27:24;;;;;;;21.67;12.70;;;2.70;99.90;;;;;;4870945;29;20082;-72
2022/12/09 12:29:52;;;;;;;21.02;12.05;;;2.70;99.90;;;;;;4871452;29;20048;-74
2022/12/09 12:32:18;;;;;;;;;;;2.70;99.90;;;;;;4854619;29;20045;-73
2022/12/09 12:35:07;;;;;;;21.13;11.63;;;2.60;99.90;;;;;;4853735;29;19954;-72
2022/12/09 12:38:00;;;;;;;19.27;11.95;;;2.60;99.90;;;;;;4870657;29;20049;-75
2022/12/09 12:40:34;;;;;;;19.63;12.43;;;2.50;99.90;;;;;;4871774;29;20226;-73
2022/12/09 12:46:25;;;;;;;21.20;12.30;;;2.40;99.90;;;;;;4835961;29;20105;-72
2022/12/09 12:49:19;;;;;;;23.27;12.73;;;2.40;99.90;;;;;;4865056;29;20256;-74
2022/12/09 12:51:58;;;;;;;20.52;11.93;;;2.50;99.90;;;;;;4870466;29;20040;-74
2022/12/09 12:54:47;;;;;;;21.30;12.93;;;2.50;99.90;;;;;;4853431;29;20034;-74
2022/12/09 12:57:32;;;;;;;21.45;12.93;;;2.50;99.90;;;;;;4870770;29;20065;-73
2022/12/09 13:00:06;;;;;;;21.17;13.02;;;2.50;99.90;;;;;;4854184;29;20041;-73
2022/12/09 13:02:54;;;;;;;22.27;11.95;;;2.50;99.90;;;;;;4874862;29;20121;-73
2022/12/09 13:05:25;;;;;;;21.77;13.23;;;2.50;99.90;;;;;;4872206;29;20064;-74
2022/12/09 13:08:09;;;;;;;22.08;13.13;;;2.50;99.90;;;;;;4889136;29;20039;-72
2022/12/09 13:10:43;;;;;;;20.52;12.50;;;2.50;99.90;;;;;;4876359;29;20117;-75
2022/12/09 13:13:23;;;;;;;22.52;13.80;;;2.60;99.90;;;;;;4870295;29;20048;-73
2022/12/09 13:15:54;;;;;;;25.23;14.18;;;2.70;99.90;;;;;;4870142;29;20068;-73
2022/12/09 13:18:38;;;;;;;22.98;13.50;;;2.60;99.90;;;;;;4853951;29;20169;-76
2022/12/09 13:21:07;;;;;;;20.70;12.73;;;2.50;99.90;;;;;;4870093;29;20238;-75
2022/12/09 13:23:56;;;;;;;23.92;13.25;;;2.50;99.90;;;;;;4869377;29;20048;-75
2022/12/09 13:26:27;;;;;;;27.17;14.38;;;2.50;99.90;;;;;;4853184;29;20029;-73
2022/12/09 13:29:08;;;;;;;23.77;13.13;;;2.50;99.90;;;;;;4870184;29;20045;-78
2022/12/09 13:31:38;;;;;;;21.17;13.07;;;2.50;99.90;;;;;;4852948;29;20037;-73
2022/12/09 13:34:37;;;;;;;23.45;13.40;;;2.50;99.90;;;;;;4853171;29;20040;-72
2022/12/09 13:37:03;;;;;;;24.75;13.85;;;2.50;99.90;;;;;;4869850;29;20033;-76
2022/12/09 13:39:41;;;;;;;25.98;13.30;;;2.40;99.90;;;;;;4869541;29;20090;-76
2022/12/09 13:45:26;;;;;;;23.75;13.73;;;2.50;99.90;;;;;;4869153;29;20084;-79
2022/12/09 13:47:54;;;;;;;23.95;13.60;;;2.60;99.90;;;;;;4853317;29;20061;-74
2022/12/09 13:50:39;;;;;;;24.43;13.87;;;2.60;99.90;;;;;;4869417;29;20025;-73
2022/12/09 13:53:23;;;;;;;23.77;13.52;;;2.70;99.90;;;;;;4852722;29;20060;-73
2022/12/09 13:55:52;;;;;;;22.95;13.25;;;2.80;99.90;;;;;;4869653;29;20097;-73
2022/12/09 13:58:23;;;;;;;;;;;2.80;99.90;;;;;;4870036;29;20037;-72
2022/12/09 14:01:23;;;;;;;25.92;14.05;;;2.90;99.90;;;;;;4869349;29;19912;-73
2022/12/09 14:04:11;;;;;;;25.33;13.93;;;3.00;99.90;;;;;;4844604;29;20057;-73
2022/12/09 14:06:45;;;;;;;27.27;14.35;;;2.90;99.90;;;;;;4869109;29;20041;-74
2022/12/09 14:09:32;;;;;;;26.73;14.38;;;2.80;99.90;;;;;;4868890;29;20026;-74
2022/12/09 14:11:59;;;;;;;29.08;14.98;;;2.70;99.90;;;;;;4869180;29;20105;-74
2022/12/09 14:14:25;;;;;;;27.25;15.07;;;2.70;99.90;;;;;;4868664;29;20026;-75
2022/12/09 14:16:56;;;;;;;27.23;14.82;;;2.70;99.90;;;;;;4870069;29;20185;-74
2022/12/09 14:19:24;;;;;;;27.00;14.65;;;2.70;99.90;;;;;;4870254;29;20315;-74
2022/12/09 14:22:21;;;;;;;25.55;14.35;;;2.70;99.90;;;;;;4870245;29;20339;-75
2022/12/09 14:24:56;;;;;;;32.17;15.63;;;2.70;99.90;;;;;;4864418;29;20077;-74
2022/12/09 14:27:21;;;;;;;27.02;14.32;;;2.70;99.90;;;;;;4851485;29;20030;-74
2022/12/09 14:29:52;;;;;;;28.73;15.00;;;2.60;99.90;;;;;;4850704;29;20061;-74
2022/12/09 14:32:31;;;;;;;30.77;16.55;;;2.60;99.90;;;;;;4851383;29;20048;-74
2022/12/09 14:35:02;;;;;;;29.85;15.73;;;2.70;99.90;;;;;;4850908;29;20044;-74
2022/12/09 14:37:46;;;;;;;27.23;14.30;;;2.70;99.90;;;;;;4850479;29;20296;-74
2022/12/09 14:40:39;;;;;;;25.73;15.15;;;2.80;99.90;;;;;;4851103;29;20026;-74
2022/12/09 14:43:19;;;;;;;28.13;15.85;;;2.80;99.90;;;;;;4844208;29;20113;-74
2022/12/09 14:45:59;;;;;;;30.95;16.75;;;2.80;99.90;;;;;;4849829;29;20360;-74
2022/12/09 14:48:38;;;;;;;32.28;17.05;;;2.70;99.90;;;;;;4850790;29;20093;-74
2022/12/09 14:51:14;;;;;;;28.83;16.15;;;2.70;99.90;;;;;;4866099;29;20110;-74
2022/12/09 14:53:40;;;;;;;26.63;15.50;;;2.60;99.90;;;;;;4865096;29;20161;-75
2022/12/09 14:56:06;;;;;;;30.38;16.73;;;2.50;99.90;;;;;;4855405;29;20025;-74
2022/12/09 14:58:34;;;;;;;33.17;17.65;;;2.40;99.90;;;;;;4862163;29;20041;-75
2022/12/09 15:01:05;;;;;;;32.35;16.15;;;2.40;99.90;;;;;;4864348;29;20041;-75
2022/12/09 15:03:31;;;;;;;32.72;16.40;;;2.30;99.90;;;;;;4860491;29;20120;-75
2022/12/09 15:06:10;;;;;;;35.45;16.92;;;2.30;99.90;;;;;;4865045;29;20064;-75
2022/12/09 15:08:39;;;;;;;34.80;17.92;;;2.30;99.90;;;;;;4853596;29;20109;-75
2022/12/09 15:11:19;;;;;;;30.15;16.13;;;2.30;99.90;;;;;;4853943;29;20037;-77
2022/12/09 15:13:50;;;;;;;36.88;18.20;;;2.30;99.90;;;;;;4840172;29;20309;-74
2022/12/09 15:16:20;;;;;;;34.90;17.88;;;2.30;99.90;;;;;;4866686;29;20026;-75
2022/12/09 15:18:50;;;;;;;37.70;18.45;;;2.20;99.90;;;;;;4859177;29;20030;-75
2022/12/09 15:21:31;;;;;;;36.22;18.83;;;2.10;99.90;;;;;;4865161;29;20048;-75
2022/12/09 15:23:59;;;;;;;38.40;20.65;;;2.10;99.90;;;;;;4850617;29;20085;-75
2022/12/09 15:26:26;;;;;;;;;;;2.10;99.90;;;;;;4868587;29;20100;-73
2022/12/09 15:28:55;;;;;;;42.80;22.25;;;2.00;99.90;;;;;;4860317;29;19915;-74
2022/12/09 15:31:25;;;;;;;35.00;19.42;;;2.10;99.90;;;;;;4863622;29;20296;-74
2022/12/09 15:33:53;;;;;;;40.13;19.90;;;2.10;99.90;;;;;;4865284;29;20045;-74
2022/12/09 15:36:38;;;;;;;38.22;19.13;;;2.20;99.90;;;;;;4866328;29;20189;-74
2022/12/09 15:39:16;;;;;;;37.42;19.02;;;2.10;99.90;;;;;;4864146;29;20048;-75
2022/12/09 15:44:54;;;;;;;41.35;20.75;;;2.10;99.90;;;;;;4860433;29;20037;-75
2022/12/09 15:47:41;;;;;;;37.38;19.45;;;2.10;99.90;;;;;;4851288;29;20108;-74
2022/12/09 15:50:09;;;;;;;39.85;19.73;;;2.10;99.90;;;;;;4866748;29;20145;-74
2022/12/09 15:53:14;;;;;;;39.47;19.27;;;2.10;99.90;;;;;;4835477;29;20033;-74
2022/12/09 15:55:50;;;;;;;39.85;19.15;;;2.10;99.90;;;;;;4809068;29;20102;-75
2022/12/09 15:58:29;;;;;;;38.47;19.13;;;2.10;99.90;;;;;;4859757;29;20041;-75
2022/12/09 16:00:55;;;;;;;41.65;19.70;;;2.10;99.90;;;;;;4834667;29;20030;-75
2022/12/09 16:03:25;;;;;;;39.92;20.15;;;2.10;99.90;;;;;;4845879;29;20045;-75
2022/12/09 16:05:53;;;;;;;45.30;21.08;;;2.10;99.90;;;;;;4857144;29;20045;-75
2022/12/09 16:08:20;;;;;;;40.72;20.05;;;2.10;99.90;;;;;;4848397;29;20211;-75
2022/12/09 16:10:49;;;;;;;41.28;20.08;;;2.10;99.90;;;;;;4847736;29;20161;-75
2022/12/09 16:13:20;;;;;;;45.10;20.73;;;2.10;99.90;;;;;;4862934;29;20041;-77
2022/12/09 16:15:50;;;;;;;44.08;21.35;;;2.00;99.90;;;;;;4871076;29;20049;-73
2022/12/09 16:18:24;;;;;;;46.95;21.90;;;2.00;99.90;;;;;;4868028;29;20105;-73
2022/12/09 16:21:07;;;;;;;48.55;23.45;;;2.10;99.90;;;;;;4869794;29;20085;-75
2022/12/09 16:23:33;;;;;;;44.10;21.75;;;2.10;99.90;;;;;;4862185;29;20307;-77
2022/12/09 16:26:01;;;;;;;45.75;21.40;;;2.10;99.90;;;;;;4870191;29;20029;-76
2022/12/09 16:28:30;;;;;;;48.50;22.60;;;2.10;99.90;;;;;;4839231;29;20030;-82
2022/12/09 16:31:02;;;;;;;46.40;22.92;;;2.10;99.90;;;;;;4868918;29;20168;-78
2022/12/09 16:33:35;;;;;;;47.83;23.73;;;2.20;99.90;;;;;;4850983;29;20040;-73
2022/12/09 16:36:23;;;;;;;51.85;25.98;;;2.20;99.90;;;;;;4871552;29;20029;-75
2022/12/09 16:39:07;;;;;;;55.60;26.55;;;2.30;99.90;;;;;;4853912;29;20059;-75
2022/12/09 16:41:51;;;;;;;50.25;24.17;;;2.30;99.90;;;;;;4836271;29;20044;-73
2022/12/09 16:44:36;;;;;;;50.40;24.15;;;2.30;99.90;;;;;;4852975;29;20037;-74
2022/12/09 16:47:09;;;;;;;58.72;27.17;;;2.30;99.90;;;;;;4836361;29;20169;-76
2022/12/09 16:49:36;;;;;;;51.75;24.08;;;2.40;99.90;;;;;;4835852;29;20038;-75
2022/12/09 16:52:01;;;;;;;50.58;23.73;;;2.40;99.90;;;;;;4836060;29;20045;-74
2022/12/09 16:54:27;;;;;;;46.45;22.33;;;2.40;99.90;;;;;;4851036;29;20371;-75
2022/12/09 16:56:55;;;;;;;45.70;22.52;;;2.40;99.90;;;;;;4851867;29;20049;-75
2022/12/09 16:59:21;;;;;;;50.85;24.08;;;2.50;99.90;;;;;;4852233;29;20323;-77
2022/12/09 17:01:47;;;;;;;47.65;23.20;;;2.50;99.90;;;;;;4835219;29;20061;-77
2022/12/09 17:04:19;;;;;;;47.15;23.25;;;2.50;99.90;;;;;;4852535;29;20038;-76
2022/12/09 17:06:45;;;;;;;55.58;26.90;;;2.50;99.90;;;;;;4851248;29;20414;-76
2022/12/09 17:09:14;;;;;;;53.35;26.17;;;2.60;99.90;;;;;;4854034;29;20046;-77
2022/12/09 17:11:41;;;;;;;53.50;25.48;;;2.60;99.90;;;;;;4870302;29;20297;-75
2022/12/09 17:14:09;;;;;;;47.35;23.02;;;2.60;99.90;;;;;;4854100;29;20093;-78
2022/12/09 17:16:57;;;;;;;48.40;22.73;;;2.70;99.90;;;;;;4869214;29;20230;-77
2022/12/09 17:19:23;;;;;;;45.83;21.95;;;2.60;99.90;;;;;;4870248;29;20025;-74
2022/12/09 17:21:50;;;;;;;49.78;23.38;;;2.60;99.90;;;;;;4853584;29;20108;-77
2022/12/09 17:24:16;;;;;;;49.28;22.98;;;2.50;99.90;;;;;;4870645;29;20100;-74
2022/12/09 17:26:54;;;;;;;48.05;22.98;;;2.50;99.90;;;;;;4853557;29;20029;-76
2022/12/09 17:29:38;;;;;;;52.35;23.98;;;2.60;99.90;;;;;;4870925;29;20057;-79
2022/12/09 17:32:06;;;;;;;50.03;23.33;;;2.60;99.90;;;;;;4870326;29;20327;-78
2022/12/09 17:37:47;;;;;;;58.78;27.13;;;2.70;99.90;;;;;;4854999;29;20272;-79
2022/12/09 17:40:20;;;;;;;48.22;23.52;;;2.80;99.90;;;;;;4862421;29;20045;-78
2022/12/09 17:42:49;;;;;;;58.97;28.67;;;2.70;99.90;;;;;;4856418;29;20088;-79
2022/12/09 17:45:41;;;;;;;52.85;24.45;;;2.70;99.90;;;;;;4869033;29;20303;-78
2022/12/09 17:48:07;;;;;;;51.67;24.10;;;2.60;99.90;;;;;;4845935;29;20049;-79
2022/12/09 17:50:40;;;;;;;50.80;22.92;;;2.60;99.90;;;;;;4866716;29;20072;-79
2022/12/09 17:53:09;;;;;;;47.97;23.05;;;2.60;99.90;;;;;;4852547;29;20037;-78
2022/12/09 17:55:41;;;;;;;49.60;22.98;;;2.60;99.90;;;;;;4872970;29;20309;-79
2022/12/09 17:58:13;;;;;;;45.25;21.88;;;2.70;99.90;;;;;;4888575;29;20025;-79
2022/12/09 18:00:42;;;;;;;46.00;21.83;;;2.70;99.90;;;;;;4888638;29;20061;-79
2022/12/09 18:03:44;;;;;;;49.78;22.50;;;2.70;99.90;;;;;;4875049;29;20164;-81
2022/12/09 18:06:20;;;;;;;54.55;27.13;;;2.60;99.90;;;;;;4872253;29;20058;-78
2022/12/09 18:08:46;;;;;;;52.72;26.10;;;2.60;99.90;;;;;;4887474;29;20307;-78
2022/12/09 18:11:15;;;;;;;53.00;26.45;;;2.60;99.90;;;;;;4854656;29;20116;-79
2022/12/09 18:13:41;;;;;;;61.38;27.77;;;2.70;99.90;;;;;;4837218;29;20021;-73
2022/12/09 18:16:08;;;;;;;49.92;24.00;;;2.80;99.90;;;;;;4868969;29;20091;-76
2022/12/09 18:18:35;;;;;;;60.88;27.80;;;2.80;99.90;;;;;;4869218;29;20044;-75
2022/12/09 18:21:00;;;;;;;52.72;25.08;;;2.80;99.90;;;;;;4852154;29;20235;-75
2022/12/09 18:23:26;;;;;;;52.83;26.38;;;2.80;99.90;;;;;;4869096;29;20033;-73
2022/12/09 18:25:53;;;;;;;54.15;24.73;;;2.80;99.90;;;;;;4852130;29;20326;-75
2022/12/09 18:28:18;;;;;;;65.97;33.72;;;2.80;99.90;;;;;;4852360;29;20025;-73
2022/12/09 18:30:44;;;;;;;49.45;24.65;;;2.80;99.90;;;;;;4868780;29;20132;-75
2022/12/09 18:33:10;;;;;;;52.17;24.92;;;2.90;99.90;;;;;;4851678;29;20255;-74
2022/12/09 18:35:40;;;;;;;61.63;30.42;;;2.90;99.90;;;;;;4852300;29;20283;-76
2022/12/09 18:38:05;;;;;;;81.25;40.40;;;2.90;99.90;;;;;;4868932;29;20037;-74
2022/12/09 18:40:31;;;;;;;57.67;26.65;;;2.90;99.90;;;;;;4868750;29;20391;-74
2022/12/09 18:42:57;;;;;;;49.75;24.95;;;2.90;99.90;;;;;;4852423;29;20071;-73
2022/12/09 18:45:23;;;;;;;50.58;24.52;;;2.80;99.90;;;;;;4869092;29;20263;-72
2022/12/09 18:47:48;;;;;;;49.05;24.65;;;2.80;99.90;;;;;;4868617;29;20193;-73
2022/12/09 18:50:14;;;;;;;51.08;25.10;;;2.70;99.90;;;;;;4869273;29;20037;-75
2022/12/09 18:52:42;;;;;;;46.90;24.25;;;2.70;99.90;;;;;;4868941;29;20101;-73
2022/12/09 18:55:08;;;;;;;53.60;25.35;;;2.70;99.90;;;;;;4868862;29;20056;-73
2022/12/09 18:57:34;;;;;;;52.25;24.98;;;2.70;99.90;;;;;;4852284;29;20048;-74
2022/12/09 19:00:00;;;;;;;49.42;24.20;;;2.70;99.90;;;;;;4868127;29;20111;-73
2022/12/09 19:02:25;;;;;;;45.08;22.48;;;2.70;99.90;;;;;;4872812;29;20081;-76
2022/12/09 19:04:51;;;;;;;49.08;24.50;;;2.70;99.90;;;;;;4855296;29;20033;-74
2022/12/09 19:07:17;;;;;;;54.38;26.25;;;2.70;99.90;;;;;;4887908;29;20025;-74
2022/12/09 19:09:46;;;;;;;61.47;29.67;;;2.70;99.90;;;;;;4846122;29;20029;-74
2022/12/09 19:12:12;;;;;;;48.03;24.13;;;2.80;99.90;;;;;;4868643;29;20037;-73
2022/12/09 19:14:39;;;;;;;45.88;24.08;;;2.80;99.90;;;;;;4868446;29;20021;-73
2022/12/09 19:17:05;;;;;;;45.97;22.80;;;2.80;99.90;;;;;;4868282;29;20057;-73
2022/12/09 19:19:31;;;;;;;72.38;33.03;;;2.80;99.90;;;;;;4868839;29;20332;-73
2022/12/09 19:21:58;;;;;;;58.22;28.10;;;2.80;99.90;;;;;;4868284;29;20040;-73
2022/12/09 19:24:26;;;;;;;44.53;22.58;;;2.80;99.90;;;;;;4868689;29;20026;-75